Time;durP1;ratioP1;P1;durP2;ratioP2;P2;SDS_P1;SDS_P2;PMS_P1;PMS_P2;Temp;Humidity;BMP_temperature;BMP_pressure;BME280_temperature;BME280_humidity;BME280_pressure;Samples;Min_cycle;Max_cycle;Signal;HPM_P1;HPM_P2
2022/02/13 00:00:11;;;;;;;17.83;7.95;;;2.80;99.90;;;;;;5050957;28;20056;-55
2022/02/13 00:02:38;;;;;;;13.48;7.47;;;2.70;99.90;;;;;;5051967;28;20079;-55
2022/02/13 00:05:04;;;;;;;15.25;8.00;;;2.80;99.90;;;;;;5051753;28;20017;-55
2022/02/13 00:07:30;;;;;;;23.38;8.77;;;2.80;99.90;;;;;;5051543;28;20032;-55
2022/02/13 00:09:57;;;;;;;14.90;7.63;;;2.80;99.90;;;;;;5051447;28;20033;-55
2022/02/13 00:12:22;;;;;;;15.55;7.63;;;2.70;99.90;;;;;;5051615;28;20028;-55
2022/02/13 00:14:48;;;;;;;14.70;8.40;;;2.70;99.90;;;;;;5051342;28;20505;-55
2022/02/13 00:17:14;;;;;;;14.50;7.82;;;2.60;99.90;;;;;;5051694;28;20386;-55
2022/02/13 00:19:40;;;;;;;14.30;7.95;;;2.60;99.90;;;;;;5051222;28;20013;-55
2022/02/13 00:22:06;;;;;;;17.90;8.35;;;2.70;99.90;;;;;;5051492;28;20017;-54
2022/02/13 00:24:32;;;;;;;15.23;8.23;;;2.70;99.90;;;;;;5051639;28;20074;-54
2022/02/13 00:26:57;;;;;;;15.05;8.20;;;2.60;99.90;;;;;;5050916;28;20064;-55
2022/02/13 00:29:23;;;;;;;14.43;7.53;;;2.60;99.90;;;;;;5050638;28;20049;-55
2022/02/13 00:31:49;;;;;;;13.07;6.68;;;2.60;99.90;;;;;;5051118;28;20481;-55
2022/02/13 00:34:15;;;;;;;14.35;8.05;;;2.50;99.90;;;;;;5049826;28;20025;-55
2022/02/13 00:36:40;;;;;;;12.50;7.47;;;2.60;99.90;;;;;;5051464;28;20025;-55
2022/02/13 00:39:09;;;;;;;18.70;7.82;;;2.50;99.90;;;;;;5051421;28;20017;-55
2022/02/13 00:41:35;;;;;;;14.35;8.13;;;2.50;99.90;;;;;;5051765;28;20020;-56
2022/02/13 00:44:01;;;;;;;14.48;6.15;;;2.50;99.90;;;;;;5051022;28;20578;-55
2022/02/13 00:46:27;;;;;;;13.80;7.75;;;2.50;99.90;;;;;;5052081;28;20057;-55
2022/02/13 00:48:54;;;;;;;15.98;7.82;;;2.40;99.90;;;;;;5049655;28;20371;-56
2022/02/13 00:51:20;;;;;;;14.55;7.57;;;2.40;99.90;;;;;;5051526;28;20108;-55
2022/02/13 00:53:46;;;;;;;11.95;6.85;;;2.40;99.90;;;;;;5053200;28;20033;-55
2022/02/13 00:56:12;;;;;;;16.25;8.13;;;2.30;99.90;;;;;;5054493;28;20023;-55
2022/02/13 00:58:38;;;;;;;14.77;7.53;;;2.30;99.90;;;;;;5055426;28;20373;-55
2022/02/13 01:01:04;;;;;;;15.48;7.95;;;2.30;99.90;;;;;;5054908;28;20025;-55
2022/02/13 01:03:30;;;;;;;15.20;8.10;;;2.30;99.90;;;;;;5055179;28;20345;-55
2022/02/13 01:05:56;;;;;;;15.02;6.60;;;2.30;99.90;;;;;;5054570;28;20032;-55
2022/02/13 01:08:23;;;;;;;15.48;7.60;;;2.30;99.90;;;;;;5054702;28;20021;-55
2022/02/13 01:10:48;;;;;;;17.63;7.72;;;2.30;99.90;;;;;;5054934;28;20036;-55
2022/02/13 01:13:14;;;;;;;16.98;8.18;;;2.40;99.90;;;;;;5054564;28;20317;-55
2022/02/13 01:15:40;;;;;;;19.90;8.48;;;2.40;99.90;;;;;;5054999;28;20041;-55
2022/02/13 01:18:05;;;;;;;13.43;7.30;;;2.30;99.90;;;;;;5054682;28;20028;-55
2022/02/13 01:20:31;;;;;;;13.45;7.47;;;2.30;99.90;;;;;;5054410;28;20037;-55
2022/02/13 01:22:56;;;;;;;16.63;8.20;;;2.40;99.90;;;;;;5054771;28;20021;-55
2022/02/13 01:25:22;;;;;;;16.02;7.90;;;2.30;99.90;;;;;;5054568;28;20070;-55
2022/02/13 01:27:48;;;;;;;16.10;7.93;;;2.30;99.90;;;;;;5053511;28;20024;-55
2022/02/13 01:30:14;;;;;;;13.80;7.70;;;2.30;99.90;;;;;;5052179;28;20536;-55
2022/02/13 01:32:40;;;;;;;13.57;7.13;;;2.30;99.90;;;;;;5053485;28;20064;-54
2022/02/13 01:35:06;;;;;;;12.52;7.32;;;2.30;99.90;;;;;;5053261;28;20057;-55
2022/02/13 01:37:32;;;;;;;14.25;7.75;;;2.20;99.90;;;;;;5053771;28;20021;-55
2022/02/13 01:39:57;;;;;;;14.63;8.05;;;2.30;99.90;;;;;;5053719;28;20142;-55
2022/02/13 01:42:23;;;;;;;11.57;7.53;;;2.30;99.90;;;;;;5053714;28;20563;-55
2022/02/13 01:44:52;;;;;;;15.20;8.52;;;2.30;99.90;;;;;;5053871;28;20037;-55
2022/02/13 01:47:18;;;;;;;13.20;7.95;;;2.30;99.90;;;;;;5054037;28;20029;-55
2022/02/13 01:49:44;;;;;;;14.38;7.68;;;2.20;99.90;;;;;;5053583;28;20378;-55
2022/02/13 01:52:09;;;;;;;12.93;8.10;;;2.20;99.90;;;;;;5053742;28;20400;-55
2022/02/13 01:54:35;;;;;;;13.55;7.63;;;2.20;99.90;;;;;;5054232;28;20032;-55
2022/02/13 01:57:02;;;;;;;13.25;7.10;;;2.20;99.90;;;;;;5052516;28;20367;-55
2022/02/13 01:59:28;;;;;;;14.90;7.35;;;2.20;99.90;;;;;;5053162;28;20032;-55
2022/02/13 02:01:53;;;;;;;14.75;7.10;;;2.20;99.90;;;;;;5052524;28;20036;-55
2022/02/13 02:04:19;;;;;;;16.50;7.90;;;2.20;99.90;;;;;;5052660;28;20035;-55
2022/02/13 02:06:45;;;;;;;14.77;8.68;;;2.10;99.90;;;;;;5052642;28;20435;-55
2022/02/13 02:09:10;;;;;;;13.10;8.10;;;2.10;99.90;;;;;;5053234;28;20087;-55
2022/02/13 02:11:36;;;;;;;14.00;7.50;;;2.10;99.90;;;;;;5053047;28;20029;-55
2022/02/13 02:14:02;;;;;;;11.88;6.72;;;2.00;99.90;;;;;;5053034;28;20394;-55
2022/02/13 02:16:27;;;;;;;13.20;7.35;;;2.00;99.90;;;;;;5052823;28;20025;-55
2022/02/13 02:18:53;;;;;;;15.57;7.68;;;2.00;99.90;;;;;;5053114;28;20021;-55
2022/02/13 02:21:19;;;;;;;12.85;7.90;;;2.00;99.90;;;;;;5053171;28;20027;-55
2022/02/13 02:23:44;;;;;;;13.32;7.68;;;2.00;99.90;;;;;;5053168;28;20033;-55
2022/02/13 02:26:15;;;;;;;12.18;7.28;;;2.00;99.90;;;;;;5052014;28;20505;-55
2022/02/13 02:28:41;;;;;;;13.70;7.40;;;1.90;99.90;;;;;;5052741;28;20571;-55
2022/02/13 02:31:06;;;;;;;15.68;7.85;;;1.90;99.90;;;;;;5053020;28;20033;-55
2022/02/13 02:33:32;;;;;;;12.35;7.63;;;1.90;99.90;;;;;;5052664;28;20044;-55
2022/02/13 02:35:57;;;;;;;13.73;8.00;;;1.90;99.90;;;;;;5052671;28;20480;-55
2022/02/13 02:38:23;;;;;;;13.18;7.88;;;1.90;99.90;;;;;;5053185;28;20021;-55
2022/02/13 02:40:49;;;;;;;15.73;8.13;;;1.90;99.90;;;;;;5052963;28;20052;-55
2022/02/13 02:43:14;;;;;;;13.45;7.15;;;1.90;99.90;;;;;;5052747;28;20563;-55
2022/02/13 02:45:40;;;;;;;15.40;8.18;;;1.90;99.90;;;;;;5052985;28;20036;-55
2022/02/13 02:48:06;;;;;;;12.18;8.05;;;1.90;99.90;;;;;;5052478;28;20104;-55
2022/02/13 02:50:31;;;;;;;11.77;6.65;;;1.90;99.90;;;;;;5052802;28;20037;-55
2022/02/13 02:52:57;;;;;;;13.13;7.68;;;1.90;99.90;;;;;;5052638;28;20029;-55
2022/02/13 02:55:23;;;;;;;12.20;7.25;;;2.00;99.90;;;;;;5051001;28;20028;-55
2022/02/13 02:57:48;;;;;;;13.55;7.80;;;2.00;99.90;;;;;;5052260;28;20501;-55
2022/02/13 03:00:14;;;;;;;13.13;7.60;;;2.00;99.90;;;;;;5052581;28;20025;-55
2022/02/13 03:02:40;;;;;;;12.05;6.80;;;2.00;99.90;;;;;;5052586;28;20055;-55
2022/02/13 03:05:06;;;;;;;14.25;8.10;;;2.00;99.90;;;;;;5052343;28;20025;-55
2022/02/13 03:07:31;;;;;;;12.73;8.07;;;1.90;99.90;;;;;;5052120;28;20029;-55
2022/02/13 03:09:57;;;;;;;15.38;7.70;;;1.90;99.90;;;;;;5051603;28;20036;-55
2022/02/13 03:12:23;;;;;;;14.98;7.72;;;1.90;99.90;;;;;;5052508;28;20029;-55
2022/02/13 03:14:49;;;;;;;15.52;7.57;;;1.90;99.90;;;;;;5052048;28;20490;-55
2022/02/13 03:17:15;;;;;;;14.70;7.63;;;1.90;99.90;;;;;;5051535;28;20021;-55
2022/02/13 03:19:40;;;;;;;12.95;8.25;;;1.90;99.90;;;;;;5052370;28;20024;-55
2022/02/13 03:22:06;;;;;;;14.13;8.05;;;1.90;99.90;;;;;;5052282;28;20021;-55
2022/02/13 03:24:33;;;;;;;13.20;7.65;;;1.90;99.90;;;;;;5050666;28;20021;-55
2022/02/13 03:26:59;;;;;;;13.30;7.03;;;1.90;99.90;;;;;;5051890;28;20025;-54
2022/02/13 03:29:24;;;;;;;14.25;7.80;;;1.90;99.90;;;;;;5049809;28;20460;-55
2022/02/13 03:31:50;;;;;;;13.60;7.65;;;1.90;99.90;;;;;;5049924;28;20025;-55
2022/02/13 03:34:16;;;;;;;12.75;7.78;;;1.90;99.90;;;;;;5051790;28;20021;-55
2022/02/13 03:36:42;;;;;;;11.05;7.00;;;1.90;99.90;;;;;;5051874;28;20020;-55
2022/02/13 03:39:08;;;;;;;12.02;7.72;;;1.90;99.90;;;;;;5051341;28;20017;-55
2022/02/13 03:41:34;;;;;;;13.40;7.55;;;1.90;99.90;;;;;;5051808;28;20391;-55
2022/02/13 03:43:59;;;;;;;11.05;7.20;;;1.90;99.90;;;;;;5051676;28;20029;-55
2022/02/13 03:46:25;;;;;;;15.30;7.15;;;1.90;99.90;;;;;;5051783;28;20029;-55
2022/02/13 03:48:51;;;;;;;16.63;7.55;;;1.90;99.90;;;;;;5051372;28;20063;-55
2022/02/13 03:51:17;;;;;;;16.00;8.15;;;1.90;99.90;;;;;;5051897;28;20460;-55
2022/02/13 03:53:42;;;;;;;11.30;7.00;;;1.90;99.90;;;;;;5051482;28;20029;-54
2022/02/13 03:56:08;;;;;;;13.52;7.95;;;2.00;99.90;;;;;;5050941;28;20112;-54
2022/02/13 03:58:34;;;;;;;17.45;8.38;;;2.00;99.90;;;;;;5051306;28;20470;-55
2022/02/13 04:01:00;;;;;;;13.13;7.53;;;2.00;99.90;;;;;;5051652;28;20027;-55
2022/02/13 04:03:28;;;;;;;15.18;7.82;;;2.00;99.90;;;;;;5051409;28;20533;-54
2022/02/13 04:05:55;;;;;;;15.63;8.07;;;2.00;99.90;;;;;;5051213;28;20029;-55
2022/02/13 04:08:23;;;;;;;14.35;8.50;;;1.90;99.90;;;;;;5051302;28;20170;-55
2022/02/13 04:10:50;;;;;;;12.57;7.50;;;2.00;99.90;;;;;;5051885;28;20044;-55
2022/02/13 04:13:16;;;;;;;12.27;7.22;;;2.00;99.90;;;;;;5051265;28;20029;-55
2022/02/13 04:15:42;;;;;;;15.82;8.40;;;1.90;99.90;;;;;;5051473;28;20032;-55
2022/02/13 04:18:12;;;;;;;10.65;6.53;;;1.80;99.90;;;;;;5051461;28;20017;-55
2022/02/13 04:20:37;;;;;;;12.73;8.13;;;1.90;99.90;;;;;;5051199;28;20021;-55
2022/02/13 04:23:03;;;;;;;15.57;7.32;;;1.90;99.90;;;;;;5051714;28;20032;-55
2022/02/13 04:25:28;;;;;;;11.15;7.63;;;1.90;99.90;;;;;;5051203;28;20107;-55
2022/02/13 04:27:54;;;;;;;14.40;7.95;;;2.00;99.90;;;;;;5051367;28;20029;-55
2022/02/13 04:30:20;;;;;;;13.10;7.85;;;2.00;99.90;;;;;;5055526;28;20397;-55
2022/02/13 04:32:45;;;;;;;16.20;8.00;;;2.00;99.90;;;;;;5055022;28;20021;-55
2022/02/13 04:35:11;;;;;;;13.48;7.55;;;2.10;99.90;;;;;;5055123;28;20021;-55
2022/02/13 04:37:37;;;;;;;14.63;8.07;;;2.10;99.90;;;;;;5055068;28;20032;-55
2022/02/13 04:40:03;;;;;;;15.93;8.32;;;2.00;99.90;;;;;;5054646;28;20040;-55
2022/02/13 04:42:29;;;;;;;10.68;6.22;;;2.00;99.90;;;;;;5055443;28;20039;-55
2022/02/13 04:44:54;;;;;;;16.98;7.32;;;2.10;99.90;;;;;;5054681;28;20064;-55
2022/02/13 04:47:20;;;;;;;12.32;7.88;;;2.10;99.90;;;;;;5055371;28;20021;-55
2022/02/13 04:49:46;;;;;;;16.15;7.97;;;2.20;99.90;;;;;;5054898;28;20468;-55
2022/02/13 04:52:12;;;;;;;12.70;7.35;;;2.10;99.90;;;;;;5055074;28;20024;-55
2022/02/13 04:54:38;;;;;;;10.23;5.60;;;2.10;99.90;;;;;;5054570;28;20389;-55
2022/02/13 04:57:04;;;;;;;12.05;7.60;;;2.10;99.90;;;;;;5054487;28;20043;-55
2022/02/13 04:59:35;;;;;;;11.73;7.90;;;2.20;99.90;;;;;;5054461;28;20497;-55
2022/02/13 05:02:01;;;;;;;12.95;7.30;;;2.20;99.90;;;;;;5054327;28;20102;-55
2022/02/13 05:04:27;;;;;;;13.95;7.88;;;2.20;99.90;;;;;;5054548;28;20024;-55
2022/02/13 05:06:53;;;;;;;13.15;5.75;;;2.20;99.90;;;;;;5054995;28;20021;-55
2022/02/13 05:09:18;;;;;;;12.82;7.70;;;2.20;99.90;;;;;;5054233;28;20035;-55
2022/02/13 05:11:44;;;;;;;13.57;7.32;;;2.20;99.90;;;;;;5053042;28;20025;-55
2022/02/13 05:14:09;;;;;;;13.43;7.85;;;2.20;99.90;;;;;;5054333;28;20048;-55
2022/02/13 05:16:35;;;;;;;17.27;7.93;;;2.10;99.90;;;;;;5054953;28;20021;-55
2022/02/13 05:19:01;;;;;;;11.75;7.22;;;2.10;99.90;;;;;;5054383;28;20429;-55
2022/02/13 05:21:26;;;;;;;11.93;7.85;;;2.10;99.90;;;;;;5054205;28;20381;-55
2022/02/13 05:23:52;;;;;;;12.38;7.55;;;2.20;99.90;;;;;;5054190;28;20025;-55
2022/02/13 05:26:18;;;;;;;12.95;8.02;;;2.10;99.90;;;;;;5054195;28;20029;-55
2022/02/13 05:28:44;;;;;;;15.20;7.28;;;2.10;99.90;;;;;;5054057;28;20526;-55
2022/02/13 05:31:10;;;;;;;10.23;7.38;;;2.00;99.90;;;;;;5053654;28;20025;-55
2022/02/13 05:33:36;;;;;;;15.40;7.60;;;2.10;99.90;;;;;;5054075;28;20032;-55
2022/02/13 05:36:02;;;;;;;14.60;7.53;;;2.10;99.90;;;;;;5053965;28;20494;-55
2022/02/13 05:38:27;;;;;;;12.18;7.28;;;2.20;99.90;;;;;;5053958;28;20452;-55
2022/02/13 05:40:53;;;;;;;10.80;7.10;;;2.20;99.90;;;;;;5053339;28;20021;-55
2022/02/13 05:43:19;;;;;;;12.00;7.13;;;2.20;99.90;;;;;;5053730;28;20116;-55
2022/02/13 05:45:45;;;;;;;12.32;7.82;;;2.20;99.90;;;;;;5053623;28;20029;-55
2022/02/13 05:48:14;;;;;;;12.38;7.60;;;2.20;99.90;;;;;;5054426;28;20031;-55
2022/02/13 05:50:41;;;;;;;12.52;7.65;;;2.20;99.90;;;;;;5053615;28;20586;-55
2022/02/13 05:53:07;;;;;;;13.40;7.93;;;2.20;99.90;;;;;;5053991;28;20025;-55
2022/02/13 05:55:33;;;;;;;12.60;6.97;;;2.20;99.90;;;;;;5053489;28;20033;-55
2022/02/13 05:57:59;;;;;;;12.55;8.20;;;2.30;99.90;;;;;;5053579;28;20029;-55
2022/02/13 06:00:25;;;;;;;13.77;7.82;;;2.40;99.90;;;;;;5053375;28;20029;-55
2022/02/13 06:02:51;;;;;;;12.07;5.93;;;2.30;99.90;;;;;;5053401;28;20056;-55
2022/02/13 06:05:17;;;;;;;11.40;6.95;;;2.30;99.90;;;;;;5053380;28;20036;-55
2022/02/13 06:07:43;;;;;;;14.65;7.75;;;2.30;99.90;;;;;;5052025;28;20025;-55
2022/02/13 06:10:10;;;;;;;14.40;7.60;;;2.30;99.90;;;;;;5053290;28;20037;-55
2022/02/13 06:12:36;;;;;;;15.65;8.52;;;2.30;99.90;;;;;;5052959;28;20048;-55
2022/02/13 06:15:03;;;;;;;8.98;6.43;;;2.20;99.90;;;;;;5052916;28;20270;-55
2022/02/13 06:17:29;;;;;;;13.30;6.97;;;2.30;99.90;;;;;;5053375;28;20021;-54
2022/02/13 06:19:55;;;;;;;12.35;7.07;;;2.30;99.90;;;;;;5052932;28;20033;-55
2022/02/13 06:22:20;;;;;;;13.02;7.45;;;2.30;99.90;;;;;;5052295;28;20053;-55
2022/02/13 06:24:47;;;;;;;13.60;7.55;;;2.30;99.90;;;;;;5053311;28;20562;-55
2022/02/13 06:27:13;;;;;;;12.13;7.65;;;2.20;99.90;;;;;;5051590;28;20020;-55
2022/02/13 06:29:38;;;;;;;10.05;7.00;;;2.20;99.90;;;;;;5052323;28;20076;-55
2022/02/13 06:32:04;;;;;;;11.35;6.97;;;2.20;99.90;;;;;;5052518;28;20553;-55
2022/02/13 06:34:30;;;;;;;15.52;7.80;;;2.20;99.90;;;;;;5052582;28;20036;-55
2022/02/13 06:36:55;;;;;;;8.55;6.00;;;2.20;99.90;;;;;;5053545;28;20394;-55
2022/02/13 06:39:21;;;;;;;11.23;6.80;;;2.20;99.90;;;;;;5053281;28;20025;-55
2022/02/13 06:41:47;;;;;;;10.25;6.43;;;2.20;99.90;;;;;;5052801;28;20021;-55
2022/02/13 06:44:13;;;;;;;11.23;6.60;;;2.30;99.90;;;;;;5053174;28;20025;-55
2022/02/13 06:46:40;;;;;;;11.27;7.25;;;2.20;99.90;;;;;;5052732;28;20060;-55
2022/02/13 06:49:07;;;;;;;12.15;6.90;;;2.30;99.90;;;;;;5052801;28;20440;-55
2022/02/13 06:51:33;;;;;;;10.40;6.18;;;2.30;99.90;;;;;;5052057;28;20028;-55
2022/02/13 06:53:59;;;;;;;11.10;7.10;;;2.30;99.90;;;;;;5052640;28;20548;-55
2022/02/13 06:56:24;;;;;;;10.68;6.03;;;2.30;99.90;;;;;;5051149;28;20112;-55
2022/02/13 06:58:50;;;;;;;12.80;7.20;;;2.30;99.90;;;;;;5052183;28;20021;-55
2022/02/13 07:01:16;;;;;;;10.85;6.18;;;2.40;99.90;;;;;;5051996;28;20044;-55
2022/02/13 07:03:42;;;;;;;12.57;7.15;;;2.30;99.90;;;;;;5052335;28;20029;-55
2022/02/13 07:06:07;;;;;;;10.57;7.20;;;2.30;99.90;;;;;;5052757;28;20048;-55
2022/02/13 07:08:33;;;;;;;16.33;7.05;;;2.40;99.90;;;;;;5052042;28;20043;-56
2022/02/13 07:11:00;;;;;;;10.32;5.80;;;2.30;99.90;;;;;;5052836;28;20593;-56
2022/02/13 07:13:25;;;;;;;13.93;6.90;;;2.30;99.90;;;;;;5052440;28;20394;-55
2022/02/13 07:15:51;;;;;;;11.57;6.88;;;2.40;99.90;;;;;;5052366;28;20025;-55
2022/02/13 07:18:17;;;;;;;16.05;7.43;;;2.40;99.90;;;;;;5052352;28;20033;-55
2022/02/13 07:20:43;;;;;;;11.35;7.15;;;2.40;99.90;;;;;;5052257;28;20090;-55
2022/02/13 07:23:08;;;;;;;9.80;6.80;;;2.50;99.90;;;;;;5052979;28;20517;-55
2022/02/13 07:25:34;;;;;;;11.20;6.75;;;2.60;99.90;;;;;;5052242;28;20040;-55
2022/02/13 07:28:58;;;;;;;12.75;6.88;;;2.60;99.90;;;;;;5051941;28;20035;-55
2022/02/13 07:30:46;;;;;;;12.10;7.47;;;2.60;99.90;;;;;;5051764;28;20044;-55
2022/02/13 07:33:12;;;;;;;9.52;6.15;;;2.60;99.90;;;;;;5052096;28;20035;-55
2022/02/13 07:35:43;;;;;;;10.57;6.20;;;2.70;99.90;;;;;;5051850;28;20108;-55
2022/02/13 07:38:10;;;;;;;11.73;7.65;;;2.70;99.90;;;;;;5051907;28;20060;-55
2022/02/13 07:40:36;;;;;;;9.60;5.88;;;2.70;99.90;;;;;;5051803;28;20032;-55
2022/02/13 07:43:02;;;;;;;8.68;6.00;;;2.70;99.90;;;;;;5051819;28;20017;-55
2022/02/13 07:45:27;;;;;;;11.73;6.28;;;2.70;99.90;;;;;;5051528;28;20079;-55
2022/02/13 07:47:53;;;;;;;13.45;6.88;;;2.70;99.90;;;;;;5051530;28;20029;-55
2022/02/13 07:50:19;;;;;;;11.73;7.50;;;2.70;99.90;;;;;;5051222;28;20036;-55
2022/02/13 07:52:44;;;;;;;10.13;6.88;;;2.80;99.90;;;;;;5051789;28;20595;-55
2022/02/13 07:55:12;;;;;;;9.50;6.65;;;2.80;99.90;;;;;;5052116;28;20036;-55
2022/02/13 07:57:38;;;;;;;11.25;7.10;;;2.80;99.90;;;;;;5051524;28;20104;-55
2022/02/13 08:00:05;;;;;;;11.48;6.40;;;2.80;99.90;;;;;;5051689;28;20028;-55
2022/02/13 08:02:32;;;;;;;11.10;7.50;;;2.90;99.90;;;;;;5050330;28;20136;-55
2022/02/13 08:04:58;;;;;;;11.40;6.68;;;2.90;99.90;;;;;;5050803;28;20025;-55
2022/02/13 08:07:23;;;;;;;11.05;6.75;;;2.90;99.90;;;;;;5052120;28;20021;-55
2022/02/13 08:09:49;;;;;;;13.65;7.22;;;3.00;99.90;;;;;;5051902;28;20448;-55
2022/02/13 08:12:15;;;;;;;11.88;7.35;;;2.90;99.90;;;;;;5051955;28;20025;-55
2022/02/13 08:14:40;;;;;;;11.68;6.95;;;2.90;99.90;;;;;;5052031;28;20044;-55
2022/02/13 08:17:06;;;;;;;11.10;6.85;;;3.00;99.90;;;;;;5052569;28;20024;-54
2022/02/13 08:19:35;;;;;;;9.88;6.82;;;3.10;99.90;;;;;;5052585;28;20049;-54
2022/02/13 08:22:03;;;;;;;13.75;7.00;;;3.20;99.90;;;;;;5052083;28;20091;-55
2022/02/13 08:24:28;;;;;;;11.65;7.32;;;3.30;99.90;;;;;;5051464;28;20028;-55
2022/02/13 08:26:54;;;;;;;12.45;7.00;;;3.50;99.90;;;;;;5051157;28;20394;-55
2022/02/13 08:29:20;;;;;;;12.38;6.57;;;3.60;99.90;;;;;;5051402;28;20071;-55
2022/02/13 08:31:46;;;;;;;9.93;6.15;;;3.80;99.90;;;;;;5050193;28;20037;-55
2022/02/13 08:34:12;;;;;;;9.80;6.88;;;4.00;99.90;;;;;;5051333;28;20025;-55
2022/02/13 08:36:37;;;;;;;11.95;6.32;;;4.50;99.90;;;;;;5051460;28;20013;-55
2022/02/13 08:39:04;;;;;;;12.07;6.40;;;4.80;99.90;;;;;;5051730;28;20032;-55
2022/02/13 08:41:30;;;;;;;8.18;5.53;;;4.90;99.90;;;;;;5051521;28;20033;-55
2022/02/13 08:43:55;;;;;;;11.45;6.10;;;5.10;99.90;;;;;;5052198;28;20033;-55
2022/02/13 08:46:23;;;;;;;9.48;6.03;;;5.40;99.90;;;;;;5051600;28;20025;-55
2022/02/13 08:48:49;;;;;;;9.68;6.22;;;5.70;99.90;;;;;;5051612;28;20256;-55
2022/02/13 08:51:14;;;;;;;9.60;6.20;;;5.80;99.90;;;;;;5050172;28;20033;-55
2022/02/13 08:53:40;;;;;;;9.23;5.30;;;5.60;99.90;;;;;;5049416;28;20517;-55
2022/02/13 08:56:06;;;;;;;10.65;6.65;;;5.40;99.90;;;;;;5051959;28;20036;-55
2022/02/13 08:58:32;;;;;;;10.30;6.80;;;5.40;99.90;;;;;;5051284;28;20026;-55
2022/02/13 09:00:59;;;;;;;10.02;6.80;;;5.40;99.90;;;;;;5051585;28;20021;-55
2022/02/13 09:03:24;;;;;;;10.35;7.07;;;5.60;99.90;;;;;;5051019;28;20391;-55
2022/02/13 09:05:50;;;;;;;11.32;6.68;;;5.80;99.90;;;;;;5050761;28;20104;-55
2022/02/13 09:08:16;;;;;;;9.32;6.22;;;5.70;99.90;;;;;;5050927;28;20024;-55
2022/02/13 09:10:42;;;;;;;11.50;6.15;;;5.80;99.90;;;;;;5050862;28;20468;-55
2022/02/13 09:13:08;;;;;;;9.27;5.68;;;5.90;99.90;;;;;;5048933;28;20151;-55
2022/02/13 09:15:34;;;;;;;7.97;5.88;;;6.00;99.90;;;;;;5054163;28;20040;-55
2022/02/13 09:17:59;;;;;;;6.95;5.55;;;6.20;99.90;;;;;;5054568;28;20044;-55
2022/02/13 09:20:25;;;;;;;9.57;6.38;;;6.20;99.90;;;;;;5054753;28;20022;-55
2022/02/13 09:22:52;;;;;;;9.93;5.22;;;6.10;99.90;;;;;;5053520;28;20037;-55
2022/02/13 09:25:18;;;;;;;8.63;5.22;;;6.10;99.90;;;;;;5054638;28;20141;-55
2022/02/13 09:27:43;;;;;;;9.30;5.82;;;6.20;99.90;;;;;;5054154;28;20107;-55
2022/02/13 09:30:10;;;;;;;9.13;5.15;;;6.30;99.90;;;;;;5053862;28;20048;-55
2022/02/13 09:32:38;;;;;;;9.38;5.30;;;6.40;99.90;;;;;;5054367;28;20083;-55
2022/02/13 09:35:05;;;;;;;10.45;5.97;;;6.60;99.90;;;;;;5053080;28;20021;-55
2022/02/13 09:37:31;;;;;;;8.27;5.80;;;6.70;99.90;;;;;;5053260;28;20092;-56
2022/02/13 09:39:56;;;;;;;12.75;6.00;;;6.60;99.90;;;;;;5053832;28;20045;-56
2022/02/13 09:42:22;;;;;;;10.02;6.43;;;6.60;99.90;;;;;;5053388;28;20055;-56
2022/02/13 09:44:48;;;;;;;8.68;5.72;;;6.60;99.90;;;;;;5053504;28;20434;-55
2022/02/13 09:47:15;;;;;;;9.93;6.15;;;6.80;99.90;;;;;;5053715;28;20028;-56
2022/02/13 09:49:40;;;;;;;11.10;6.47;;;6.80;99.90;;;;;;5053609;28;20040;-56
2022/02/13 09:52:09;;;;;;;12.05;6.20;;;6.50;99.90;;;;;;5058424;28;20437;-56
2022/02/13 09:54:36;;;;;;;8.02;4.78;;;6.40;99.90;;;;;;5066494;28;20056;-56
2022/02/13 09:59:57;;;;;;;7.78;5.68;;;6.30;99.90;;;;;;5053560;28;20091;-55
2022/02/13 10:02:43;;;;;;;12.98;5.80;;;6.10;99.90;;;;;;5053401;28;20501;-55
2022/02/13 10:05:19;;;;;;;9.13;6.53;;;6.30;99.90;;;;;;5053469;28;20155;-55
2022/02/13 10:07:45;;;;;;;9.07;5.68;;;6.30;99.90;;;;;;5052992;28;20021;-56
2022/02/13 10:10:14;;;;;;;7.18;5.32;;;6.30;99.90;;;;;;5053463;28;20116;-56
2022/02/13 10:12:42;;;;;;;11.02;6.38;;;6.30;99.90;;;;;;5053240;28;20049;-56
2022/02/13 10:15:30;;;;;;;9.68;6.07;;;6.40;99.90;;;;;;5052829;28;20052;-56
2022/02/13 10:18:02;;;;;;;9.40;4.93;;;6.50;99.90;;;;;;5053338;28;20104;-56
2022/02/13 10:20:37;;;;;;;11.52;7.10;;;6.70;99.90;;;;;;5051436;28;20048;-56
2022/02/13 10:23:05;;;;;;;7.82;5.85;;;6.70;99.90;;;;;;5052875;28;20044;-56
2022/02/13 10:25:31;;;;;;;5.75;4.75;;;6.80;99.90;;;;;;5052237;28;20040;-56
2022/02/13 10:27:57;;;;;;;9.32;6.03;;;6.90;99.90;;;;;;5051924;28;20679;-56
2022/02/13 10:30:55;;;;;;;11.07;6.50;;;6.90;99.90;;;;;;5052091;28;20565;-56
2022/02/13 10:33:22;;;;;;;7.50;3.95;;;7.00;99.90;;;;;;5040770;28;20033;-56
2022/02/13 10:36:01;;;;;;;10.55;5.53;;;7.30;99.90;;;;;;5053165;28;20039;-56
2022/02/13 10:38:32;;;;;;;8.82;5.60;;;7.30;99.90;;;;;;5052548;28;20014;-56
2022/02/13 10:41:35;;;;;;;10.82;6.25;;;7.60;99.90;;;;;;5052442;28;20092;-56
2022/02/13 10:44:03;;;;;;;7.40;5.50;;;8.10;99.90;;;;;;5041127;28;20055;-56
2022/02/13 10:46:31;;;;;;;6.57;4.45;;;8.10;99.90;;;;;;5052884;28;20029;-56
2022/02/13 10:48:58;;;;;;;8.43;4.90;;;8.30;99.90;;;;;;5052712;28;20009;-56
2022/02/13 10:51:24;;;;;;;8.68;5.22;;;8.70;99.90;;;;;;5052166;28;20470;-56
2022/02/13 10:53:51;;;;;;;6.20;5.00;;;9.00;99.90;;;;;;5052225;28;20048;-56
2022/02/13 10:56:21;;;;;;;11.95;5.65;;;9.20;99.90;;;;;;5051816;28;20036;-56
2022/02/13 10:58:47;;;;;;;6.13;4.72;;;9.10;99.90;;;;;;5051708;28;20100;-55
2022/02/13 11:01:16;;;;;;;6.22;3.67;;;9.20;99.90;;;;;;5051419;28;20017;-55
2022/02/13 11:03:44;;;;;;;11.55;5.45;;;9.10;99.90;;;;;;5052628;28;20095;-56
2022/02/13 11:06:10;;;;;;;7.70;5.20;;;9.20;99.90;;;;;;5053209;28;20037;-56
2022/02/13 11:09:02;;;;;;;7.57;5.55;;;9.30;99.90;;;;;;5051659;28;20099;-56
2022/02/13 11:11:28;;;;;;;7.30;5.53;;;9.50;99.90;;;;;;5049403;28;20494;-56
2022/02/13 11:13:55;;;;;;;7.03;4.93;;;9.60;99.90;;;;;;5051771;28;20025;-56
2022/02/13 11:16:29;;;;;;;7.07;4.75;;;9.70;99.90;;;;;;5052353;28;20086;-56
2022/02/13 11:19:15;;;;;;;8.35;4.97;;;10.20;99.90;;;;;;5052000;28;20025;-56
2022/02/13 11:21:43;;;;;;;4.80;3.53;;;10.10;99.90;;;;;;5051755;28;20028;-56
2022/02/13 11:24:35;;;;;;;7.25;4.78;;;10.00;99.90;;;;;;5051832;28;20036;-56
2022/02/13 11:27:02;;;;;;;4.60;4.13;;;10.00;99.90;;;;;;5051862;28;20025;-56
2022/02/13 11:29:57;;;;;;;6.55;4.65;;;10.10;99.90;;;;;;5050177;28;20299;-56
2022/02/13 11:32:45;;;;;;;6.22;4.57;;;10.50;99.90;;;;;;5051034;28;20090;-56
2022/02/13 11:35:15;;;;;;;6.50;4.10;;;10.40;99.90;;;;;;5051942;28;20036;-56
2022/02/13 11:37:46;;;;;;;6.70;3.92;;;10.40;99.90;;;;;;5051671;28;20056;-56
2022/02/13 11:40:33;;;;;;;5.82;4.85;;;10.50;99.90;;;;;;5051338;28;20032;-56
2022/02/13 11:43:00;;;;;;;6.18;4.57;;;10.40;99.90;;;;;;5051071;28;20043;-56
2022/02/13 11:45:26;;;;;;;9.85;4.75;;;10.70;99.90;;;;;;5051693;28;20112;-55
2022/02/13 11:47:52;;;;;;;9.25;5.07;;;10.60;99.90;;;;;;5050912;28;20037;-56
2022/02/13 11:50:21;;;;;;;8.90;5.43;;;10.70;99.90;;;;;;5051017;28;20090;-55
2022/02/13 11:52:54;;;;;;;10.60;5.35;;;10.90;99.90;;;;;;5051217;28;20045;-55
2022/02/13 11:55:20;;;;;;;6.90;4.65;;;10.90;99.90;;;;;;5051283;28;20098;-55
2022/02/13 11:58:19;;;;;;;6.80;4.68;;;11.40;99.90;;;;;;5050887;28;20021;-55
2022/02/13 12:00:48;;;;;;;9.98;5.55;;;11.00;99.90;;;;;;5038735;28;20037;-55
2022/02/13 12:03:18;;;;;;;8.88;4.95;;;11.10;99.90;;;;;;5051459;28;20037;-55
2022/02/13 12:06:10;;;;;;;9.18;6.10;;;11.10;99.90;;;;;;5051459;28;20021;-55
2022/02/13 12:08:36;;;;;;;8.73;5.00;;;10.70;99.90;;;;;;5047131;28;20029;-55
2022/02/13 12:11:07;;;;;;;8.77;5.20;;;10.30;99.90;;;;;;5050791;28;20021;-55
2022/02/13 12:13:36;;;;;;;9.57;5.18;;;10.50;99.90;;;;;;5051006;28;20279;-55
2022/02/13 12:16:06;;;;;;;9.52;4.47;;;11.00;99.90;;;;;;5050960;28;20029;-55
2022/02/13 12:18:32;;;;;;;12.13;6.47;;;10.90;99.90;;;;;;5050882;28;20017;-55
2022/02/13 12:20:59;;;;;;;10.75;6.00;;;11.00;99.90;;;;;;5050707;28;20025;-55
2022/02/13 12:23:25;;;;;;;10.77;6.50;;;10.90;99.90;;;;;;5052319;28;20021;-55
2022/02/13 12:25:52;;;;;;;12.48;5.57;;;10.90;99.90;;;;;;5051240;28;20032;-55
2022/02/13 12:28:19;;;;;;;10.82;5.43;;;10.90;99.90;;;;;;5050632;28;20498;-55
2022/02/13 12:30:54;;;;;;;10.07;6.35;;;10.70;99.90;;;;;;5051110;28;20048;-55
2022/02/13 12:33:25;;;;;;;11.57;6.43;;;10.60;99.90;;;;;;5050994;28;20052;-55
2022/02/13 12:35:51;;;;;;;14.90;5.43;;;10.30;99.90;;;;;;5050835;28;20497;-55
2022/02/13 12:38:17;;;;;;;11.70;6.20;;;10.00;99.90;;;;;;5050762;28;20104;-55
2022/02/13 12:40:46;;;;;;;13.13;6.70;;;10.00;99.90;;;;;;5050517;28;20059;-55
2022/02/13 12:43:15;;;;;;;11.45;6.28;;;10.00;99.90;;;;;;5050597;28;20021;-55
2022/02/13 12:45:42;;;;;;;10.18;6.90;;;9.80;99.90;;;;;;5050929;28;20087;-55
2022/02/13 12:48:15;;;;;;;13.77;6.95;;;9.90;99.90;;;;;;5054423;28;20226;-55
2022/02/13 12:50:47;;;;;;;10.68;6.18;;;9.90;99.90;;;;;;5062527;28;20033;-55